Time;durP1;ratioP1;P1;durP2;ratioP2;P2;SDS_P1;SDS_P2;PMS_P1;PMS_P2;Temp;Humidity;BMP_temperature;BMP_pressure;BME280_temperature;BME280_humidity;BME280_pressure;Samples;Min_cycle;Max_cycle;Signal;HPM_P1;HPM_P2
2021/12/04 00:02:04;;;;;;;41.42;18.85;;;;;;;-1.91;100.00;100100.84;5094003;28;20481;-74
2021/12/04 00:04:35;;;;;;;37.17;17.05;;;;;;;-1.83;100.00;100099.88;5094327;28;20044;-74
2021/12/04 00:07:05;;;;;;;43.22;18.15;;;;;;;-1.81;100.00;100097.22;5094321;28;20047;-74
2021/12/04 00:09:34;;;;;;;35.63;17.25;;;;;;;-1.74;100.00;100091.91;5094790;28;20044;-72
2021/12/04 00:12:05;;;;;;;31.88;16.20;;;;;;;-1.81;100.00;100087.63;5094140;28;20040;-73
2021/12/04 00:14:35;;;;;;;38.63;17.30;;;;;;;-1.82;100.00;100075.44;5094511;28;20046;-72
2021/12/04 00:17:06;;;;;;;32.53;16.73;;;;;;;-1.79;100.00;100080.63;5093904;28;20044;-74
2021/12/04 00:19:34;;;;;;;33.10;16.45;;;;;;;-1.85;100.00;100088.53;5094603;28;20469;-73
2021/12/04 00:22:03;;;;;;;35.30;17.35;;;;;;;-1.91;100.00;100080.78;5094011;28;20400;-74
2021/12/04 00:24:32;;;;;;;32.55;15.85;;;;;;;-1.89;100.00;100073.78;5094206;28;20044;-73
2021/12/04 00:27:01;;;;;;;33.75;16.23;;;;;;;-1.86;100.00;100078.09;5093878;28;20040;-73
2021/12/04 00:29:31;;;;;;;36.92;17.00;;;;;;;-1.92;100.00;100075.59;5094141;28;20504;-73
2021/12/04 00:32:03;;;;;;;38.30;18.08;;;;;;;-2.02;100.00;100080.06;5093787;28;20083;-75
2021/12/04 00:34:35;;;;;;;42.28;18.35;;;;;;;-2.08;100.00;100077.50;5094040;28;20047;-75
2021/12/04 00:51:02;;;;;;;36.05;17.55;;;;;;;-2.51;100.00;100059.69;5089977;28;20047;-76
2021/12/04 00:53:30;;;;;;;37.80;18.13;;;;;;;-2.54;100.00;100066.69;5090504;28;20044;-76
2021/12/04 00:56:00;;;;;;;38.08;17.67;;;;;;;-2.36;100.00;100067.34;5090310;28;20041;-75
2021/12/04 00:58:28;;;;;;;38.33;19.15;;;;;;;-2.20;100.00;100056.75;5090329;28;20541;-76
2021/12/04 01:00:57;;;;;;;37.58;17.60;;;;;;;-2.38;100.00;100069.13;5090318;28;20044;-74
2021/12/04 01:03:28;;;;;;;39.28;18.70;;;;;;;-2.58;100.00;100068.47;5090003;28;20446;-74
2021/12/04 01:05:56;;;;;;;36.08;17.60;;;;;;;-2.75;100.00;100067.75;5090361;28;20082;-74
2021/12/04 01:08:25;;;;;;;34.70;17.63;;;;;;;-2.84;100.00;100073.91;5089469;28;20044;-74
2021/12/04 01:10:55;;;;;;;40.35;17.92;;;;;;;-2.82;100.00;100066.06;5090154;28;20429;-74
2021/12/04 01:13:25;;;;;;;35.67;17.67;;;;;;;-2.66;100.00;100062.44;5089477;28;20048;-76
2021/12/04 01:15:53;;;;;;;38.30;17.85;;;;;;;-2.76;100.00;100060.81;5090104;28;20051;-75
2021/12/04 01:18:21;;;;;;;40.72;18.63;;;;;;;-2.76;100.00;100064.28;5089387;28;20044;-75
2021/12/04 01:20:51;;;;;;;33.35;17.92;;;;;;;-2.79;100.00;100071.28;5090027;28;20044;-75
2021/12/04 01:23:19;;;;;;;35.45;18.67;;;;;;;-2.81;100.00;100081.72;5089341;28;20046;-75
2021/12/04 01:25:48;;;;;;;33.90;17.30;;;;;;;-2.77;100.00;100075.59;5089957;28;20144;-74
2021/12/04 01:28:16;;;;;;;35.50;17.42;;;;;;;-2.82;100.00;100071.28;5089508;28;20040;-75
2021/12/04 01:30:45;;;;;;;36.80;17.40;;;;;;;-2.90;100.00;100072.22;5089880;28;20045;-75
2021/12/04 01:33:14;;;;;;;36.13;17.48;;;;;;;-3.00;100.00;100067.94;5089157;28;20048;-75
2021/12/04 01:35:42;;;;;;;36.03;17.17;;;;;;;-3.09;100.00;100075.84;5089674;28;20071;-75
2021/12/04 01:38:11;;;;;;;39.33;18.25;;;;;;;-3.00;100.00;100077.53;5088728;28;20483;-75
2021/12/04 01:40:39;;;;;;;38.75;17.85;;;;;;;-2.74;100.00;100074.69;5089675;28;20094;-75
2021/12/04 01:43:08;;;;;;;36.17;17.63;;;;;;;-2.71;100.00;100069.44;5089071;28;20166;-75
2021/12/04 01:45:37;;;;;;;35.25;16.90;;;;;;;-2.82;100.00;100061.72;5089549;28;20102;-75
2021/12/04 01:48:07;;;;;;;33.90;17.52;;;;;;;-2.85;100.00;100058.28;5089249;28;20430;-77
2021/12/04 01:50:36;;;;;;;40.58;17.77;;;;;;;-2.75;100.00;100068.63;5080170;28;20044;-75
2021/12/04 01:53:04;;;;;;;40.47;17.55;;;;;;;-2.69;100.00;100072.94;5075573;28;20052;-82
2021/12/04 01:55:35;;;;;;;37.50;17.15;;;;;;;-2.80;100.00;100064.31;5075585;28;20055;-75
2021/12/04 01:58:06;;;;;;;32.67;17.10;;;;;;;-3.03;100.00;100061.91;5075530;28;20036;-81
2021/12/04 02:00:38;;;;;;;35.10;18.13;;;;;;;-3.09;100.00;100062.81;5075585;28;20047;-75
2021/12/04 02:03:09;;;;;;;38.60;18.48;;;;;;;-3.13;100.00;100055.91;5075583;28;20044;-73
2021/12/04 02:05:39;;;;;;;39.63;18.73;;;;;;;-2.95;100.00;100047.91;5075323;28;20052;-73
2021/12/04 02:08:07;;;;;;;35.30;18.25;;;;;;;-2.99;100.00;100051.44;5075036;28;20481;-73
2021/12/04 02:10:36;;;;;;;36.58;16.58;;;;;;;-3.00;100.00;100052.28;5075567;28;20440;-73
2021/12/04 02:13:06;;;;;;;34.55;18.00;;;;;;;-3.11;100.00;100038.47;5075473;28;20048;-72
2021/12/04 02:15:34;;;;;;;36.95;18.40;;;;;;;-3.26;100.00;100042.09;5075446;28;20123;-73
2021/12/04 02:18:05;;;;;;;36.60;17.83;;;;;;;-3.33;100.00;100042.13;5075353;28;20045;-73
2021/12/04 02:20:36;;;;;;;37.20;18.20;;;;;;;-3.44;100.00;100036.13;5075364;28;20044;-75
2021/12/04 02:23:06;;;;;;;34.35;17.83;;;;;;;-3.09;100.00;100047.16;5075418;28;20040;-76
2021/12/04 02:25:35;;;;;;;39.33;16.92;;;;;;;-2.81;100.00;100028.63;5075055;28;20048;-77
2021/12/04 02:28:05;;;;;;;40.22;19.25;;;;;;;-3.15;100.00;100036.78;5074955;28;20094;-76
2021/12/04 02:30:37;;;;;;;39.45;18.20;;;;;;;-3.28;100.00;100030.81;5075023;28;20044;-76
2021/12/04 02:33:11;;;;;;;42.35;19.08;;;;;;;-3.38;100.00;100038.69;5075268;28;20048;-76
2021/12/04 02:35:43;;;;;;;40.90;19.15;;;;;;;-3.52;100.00;100036.19;5075114;28;20123;-76
2021/12/04 02:38:12;;;;;;;41.85;19.52;;;;;;;-3.56;100.00;100034.47;5074580;28;20053;-78
2021/12/04 02:40:43;;;;;;;45.13;20.77;;;;;;;-3.45;100.00;100027.44;5075079;28;20072;-75
2021/12/04 02:43:11;;;;;;;41.83;20.75;;;;;;;-3.38;100.00;100023.03;5074741;28;20444;-75
2021/12/04 02:45:42;;;;;;;46.60;20.90;;;;;;;-3.48;100.00;100027.44;5073795;28;20498;-75
2021/12/04 02:48:10;;;;;;;43.15;20.05;;;;;;;-3.51;100.00;100023.13;5074376;28;20044;-76
2021/12/04 02:50:39;;;;;;;44.55;20.50;;;;;;;-3.56;100.00;100029.28;5074504;28;20037;-75
2021/12/04 02:53:09;;;;;;;47.63;21.42;;;;;;;-3.41;100.00;100021.31;5074802;28;20045;-76
2021/12/04 02:55:37;;;;;;;38.70;18.35;;;;;;;-3.10;100.00;100024.53;5074720;28;20397;-76
2021/12/04 02:58:05;;;;;;;41.95;18.92;;;;;;;-2.92;100.00;100020.91;5074684;28;20079;-76
2021/12/04 03:00:34;;;;;;;39.50;18.50;;;;;;;-2.83;100.00;100018.22;5074332;28;20067;-76
2021/12/04 03:03:03;;;;;;;39.00;18.05;;;;;;;-3.01;100.00;100018.38;5073646;28;20439;-76
2021/12/04 03:05:31;;;;;;;36.90;17.05;;;;;;;-2.98;100.00;100014.03;5073145;28;20131;-76
2021/12/04 03:08:03;;;;;;;34.85;16.73;;;;;;;-2.91;100.00;100015.69;5074031;28;20511;-76
2021/12/04 03:10:32;;;;;;;35.47;16.30;;;;;;;-2.86;100.00;100017.41;5074074;28;20055;-76
2021/12/04 03:13:01;;;;;;;37.58;17.52;;;;;;;-2.81;100.00;100010.38;5074317;28;20037;-75
2021/12/04 03:15:30;;;;;;;43.97;20.90;;;;;;;-2.86;100.00;100002.59;5073987;28;20848;-75
2021/12/04 03:17:58;;;;;;;39.83;19.70;;;;;;;-2.85;100.00;100003.47;5073937;28;20040;-75
2021/12/04 03:20:27;;;;;;;32.88;15.90;;;;;;;-2.90;100.00;100001.75;5073783;28;20041;-75
2021/12/04 03:23:00;;;;;;;33.70;15.13;;;;;;;-2.94;100.00;100005.28;5074112;28;20041;-75
2021/12/04 03:25:28;;;;;;;32.30;14.85;;;;;;;-2.95;100.00;100005.28;5073859;28;20044;-75
2021/12/04 03:28:01;;;;;;;33.83;16.20;;;;;;;-2.98;100.00;100006.19;5073717;28;20098;-76
2021/12/04 03:30:38;;;;;;;30.02;14.85;;;;;;;-3.00;100.00;100000.09;5073483;28;20131;-75
2021/12/04 03:41:25;;;;;;;28.08;14.02;;;;;;;-3.55;100.00;99978.84;5073819;28;20071;-76
2021/12/04 03:43:54;;;;;;;28.33;14.35;;;;;;;-3.62;100.00;99977.16;5074022;28;20044;-75
2021/12/04 03:46:24;;;;;;;28.45;14.13;;;;;;;-3.41;100.00;99966.56;5073378;28;20090;-75
2021/12/04 03:48:55;;;;;;;27.80;13.48;;;;;;;-3.26;100.00;99961.22;5073723;28;20041;-75
2021/12/04 03:51:23;;;;;;;31.88;14.57;;;;;;;-3.26;100.00;99949.91;5073211;28;20045;-75
2021/12/04 03:53:51;;;;;;;24.85;12.93;;;;;;;-3.26;100.00;99939.50;5073691;28;20126;-75
2021/12/04 03:56:24;;;;;;;28.05;13.85;;;;;;;-3.37;100.00;99946.56;5073418;28;20371;-75
2021/12/04 03:58:52;;;;;;;25.52;12.60;;;;;;;-3.31;100.00;99936.91;5073531;28;20040;-75
2021/12/04 04:01:22;;;;;;;24.70;11.82;;;;;;;-3.32;100.00;99936.94;5073158;28;20473;-75
2021/12/04 04:03:50;;;;;;;29.42;12.40;;;;;;;-3.40;100.00;99936.13;5073557;28;20075;-75
2021/12/04 04:06:19;;;;;;;31.42;13.25;;;;;;;-3.47;100.00;99941.41;5073118;28;20094;-75
2021/12/04 04:08:47;;;;;;;25.50;12.15;;;;;;;-3.59;100.00;99945.84;5072990;28;20477;-74
2021/12/04 04:11:16;;;;;;;27.70;12.38;;;;;;;-3.67;100.00;99942.41;5075123;28;20040;-74
2021/12/04 04:13:45;;;;;;;27.13;13.63;;;;;;;-3.76;100.00;99949.47;5073057;28;20040;-74
2021/12/04 04:16:14;;;;;;;28.63;13.15;;;;;;;-3.78;100.00;99945.09;5073203;28;20040;-81
2021/12/04 04:18:44;;;;;;;28.65;13.35;;;;;;;-3.81;100.00;99935.56;5073232;28;20043;-74
2021/12/04 04:21:12;;;;;;;28.80;12.32;;;;;;;-3.83;100.00;99936.47;5073140;28;20052;-75
2021/12/04 04:23:41;;;;;;;29.88;12.40;;;;;;;-3.74;100.00;99933.81;5073391;28;20045;-74
2021/12/04 04:26:09;;;;;;;26.63;12.23;;;;;;;-3.52;100.00;99931.88;5072168;28;20056;-71
2021/12/04 04:28:37;;;;;;;24.80;12.70;;;;;;;-3.56;100.00;99933.66;5072834;28;20040;-71
2021/12/04 04:31:08;;;;;;;27.77;13.07;;;;;;;-3.61;100.00;99935.44;5072793;28;20059;-71
2021/12/04 04:33:40;;;;;;;27.33;13.05;;;;;;;-3.67;100.00;99945.03;5072988;28;20039;-72
2021/12/04 04:36:21;;;;;;;31.65;12.95;;;;;;;-3.67;100.00;99945.88;5073784;28;20072;-71
2021/12/04 04:39:01;;;;;;;25.52;11.80;;;;;;;-3.60;100.00;99946.72;5073049;28;20060;-73
2021/12/04 04:58:25;;;;;;;29.02;12.80;;;;;;;-3.95;100.00;99954.81;5072921;28;20095;-77
2021/12/04 05:01:18;;;;;;;27.02;13.15;;;;;;;-3.98;100.00;99962.63;5072817;28;20064;-72
2021/12/04 05:12:16;;;;;;;23.70;11.43;;;;;;;-3.54;100.00;99960.59;5072416;28;20048;-72
2021/12/04 05:14:47;;;;;;;22.98;11.68;;;;;;;-3.52;100.00;99963.16;5071488;28;20049;-72
2021/12/04 05:17:16;;;;;;;27.00;11.82;;;;;;;-3.59;100.00;99953.66;5072788;28;20440;-72
2021/12/04 05:19:46;;;;;;;24.90;12.50;;;;;;;-3.64;100.00;99958.91;5072707;28;20444;-72
2021/12/04 05:22:17;;;;;;;;;;;;;;;-3.81;100.00;99953.81;5072932;28;20482;-75
2021/12/04 05:24:47;;;;;;;31.52;13.43;;;;;;;-4.00;100.00;99954.81;5072747;28;19927;-72
2021/12/04 05:27:15;;;;;;;26.50;13.57;;;;;;;-3.88;100.00;99940.84;5076492;28;20074;-72
2021/12/04 05:29:44;;;;;;;28.27;13.77;;;;;;;-3.73;100.00;99947.69;5076224;28;20098;-72
2021/12/04 05:32:13;;;;;;;28.50;13.85;;;;;;;-3.79;100.00;99944.25;5076284;28;20102;-72
2021/12/04 05:34:41;;;;;;;29.48;14.07;;;;;;;-3.78;100.00;99952.94;5075952;28;20048;-72
2021/12/04 05:37:09;;;;;;;26.00;13.57;;;;;;;-3.83;100.00;99942.56;5076226;28;20417;-72
2021/12/04 05:39:40;;;;;;;27.00;12.85;;;;;;;-3.89;100.00;99946.94;5075685;28;20060;-72
2021/12/04 05:42:11;;;;;;;30.70;14.32;;;;;;;-4.01;100.00;99944.41;5076203;28;20093;-73
2021/12/04 05:44:41;;;;;;;25.85;13.27;;;;;;;-4.06;100.00;99937.47;5074574;28;20048;-75
2021/12/04 05:47:16;;;;;;;31.90;13.63;;;;;;;-4.12;100.00;99945.34;5075855;28;20051;-75
2021/12/04 05:49:53;;;;;;;30.92;14.05;;;;;;;-4.15;100.00;99950.56;5075654;28;20064;-75
2021/12/04 05:52:34;;;;;;;31.17;13.90;;;;;;;-4.14;100.00;99943.63;5076198;28;20044;-74
2021/12/04 05:55:13;;;;;;;28.70;14.32;;;;;;;-4.11;100.00;99939.25;5075874;28;20444;-72
2021/12/04 05:57:42;;;;;;;31.38;14.10;;;;;;;-4.09;100.00;99934.03;5075380;28;20490;-73
2021/12/04 06:00:15;;;;;;;27.08;13.55;;;;;;;-4.13;100.00;99935.78;5075776;28;20045;-76
2021/12/04 06:02:43;;;;;;;30.23;14.67;;;;;;;-4.09;100.00;99934.88;5075648;28;20051;-75
2021/12/04 06:05:12;;;;;;;31.85;14.32;;;;;;;-4.15;100.00;99937.56;5074329;28;20048;-75
2021/12/04 06:07:41;;;;;;;27.05;14.48;;;;;;;-4.13;100.00;99933.19;5074975;28;20048;-75
2021/12/04 06:10:10;;;;;;;35.83;16.67;;;;;;;-4.05;100.00;99936.63;5075356;28;20555;-75
2021/12/04 06:12:38;;;;;;;37.78;16.20;;;;;;;-3.95;100.00;99929.63;5074898;28;20040;-74
2021/12/04 06:15:09;;;;;;;33.30;15.75;;;;;;;-3.75;100.00;99927.72;5075567;28;20033;-74
2021/12/04 06:17:39;;;;;;;34.13;17.20;;;;;;;-3.85;100.00;99927.81;5075287;28;20044;-75
2021/12/04 06:22:55;;;;;;;29.60;13.40;;;;;;;-3.57;100.00;99921.50;5075460;28;20051;-74
2021/12/04 06:25:26;;;;;;;31.58;15.82;;;;;;;-3.49;100.00;99921.41;5075288;28;20041;-79
2021/12/04 06:27:57;;;;;;;37.60;18.52;;;;;;;-3.44;100.00;99924.00;5075397;28;20435;-71
2021/12/04 06:30:27;;;;;;;36.22;16.85;;;;;;;-3.68;100.00;99906.81;5075354;28;20041;-76
2021/12/04 06:32:56;;;;;;;40.72;17.95;;;;;;;-3.67;100.00;99913.75;5075370;28;20489;-73
2021/12/04 06:35:24;;;;;;;32.80;16.40;;;;;;;-3.67;100.00;99914.59;5074939;28;20053;-82
2021/12/04 06:37:53;;;;;;;23.90;12.82;;;;;;;-3.57;100.00;99918.00;5074845;28;20051;-75
2021/12/04 06:40:25;;;;;;;28.30;12.55;;;;;;;-3.55;100.00;99909.31;5075306;28;20040;-75
2021/12/04 06:42:55;;;;;;;26.02;11.88;;;;;;;-3.50;100.00;99902.31;5075142;28;20049;-76
2021/12/04 06:45:25;;;;;;;27.27;12.52;;;;;;;-3.64;100.00;99906.78;5075387;28;20421;-76
2021/12/04 06:47:57;;;;;;;29.80;12.75;;;;;;;-3.78;100.00;99924.25;5075243;28;20052;-75
2021/12/04 06:50:35;;;;;;;28.83;13.77;;;;;;;-3.82;100.00;99917.34;5074827;28;20131;-82
2021/12/04 06:53:10;;;;;;;28.98;13.93;;;;;;;-3.74;100.00;99910.34;5075020;28;20045;-75
2021/12/04 06:55:43;;;;;;;28.55;14.10;;;;;;;-3.79;100.00;99907.75;5074482;28;20075;-76
2021/12/04 06:58:14;;;;;;;31.27;16.40;;;;;;;-3.84;100.00;99913.91;5074537;28;20484;-75
2021/12/04 07:00:43;;;;;;;32.72;15.65;;;;;;;-3.83;100.00;99915.63;5074583;28;20428;-76
2021/12/04 07:03:17;;;;;;;27.27;14.43;;;;;;;-3.81;100.00;99914.72;5074758;28;20040;-75
2021/12/04 07:05:46;;;;;;;33.72;16.10;;;;;;;-3.82;100.00;99892.16;5074172;28;20045;-76
2021/12/04 07:08:15;;;;;;;34.67;15.57;;;;;;;-3.73;100.00;99900.78;5074391;28;20528;-75
2021/12/04 07:10:43;;;;;;;29.42;15.18;;;;;;;-3.73;100.00;99895.56;5074218;28;20131;-75
2021/12/04 07:13:12;;;;;;;27.35;14.38;;;;;;;-3.76;100.00;99893.84;5074516;28;20044;-75
2021/12/04 07:15:44;;;;;;;35.22;14.52;;;;;;;-3.68;100.00;99886.81;5074131;28;20043;-75
2021/12/04 07:18:12;;;;;;;32.45;16.02;;;;;;;-3.60;100.00;99882.41;5074376;28;20037;-75
2021/12/04 07:20:42;;;;;;;30.15;14.05;;;;;;;-3.34;100.00;99879.56;5073952;28;20040;-75
2021/12/04 07:23:10;;;;;;;30.67;15.27;;;;;;;-3.28;100.00;99883.84;5074103;28;20037;-76
2021/12/04 07:25:41;;;;;;;28.52;14.05;;;;;;;-3.33;100.00;99875.22;5073524;28;20075;-74
2021/12/04 07:28:10;;;;;;;29.40;14.55;;;;;;;-3.13;100.00;99882.84;5073926;28;20060;-68
2021/12/04 07:30:39;;;;;;;30.40;14.18;;;;;;;-2.89;100.00;99888.66;5073604;28;20041;-67
2021/12/04 07:33:07;;;;;;;29.42;15.30;;;;;;;-2.75;100.00;99874.56;5073967;28;20068;-75
2021/12/04 07:35:36;;;;;;;26.20;14.20;;;;;;;-2.78;100.00;99874.63;5073245;28;20041;-74
2021/12/04 07:38:05;;;;;;;29.48;14.60;;;;;;;-2.85;100.00;99873.81;5073547;28;20050;-74
2021/12/04 07:40:34;;;;;;;27.48;14.05;;;;;;;-2.76;100.00;99868.47;5073288;28;20393;-75
2021/12/04 07:43:02;;;;;;;28.02;13.52;;;;;;;-2.57;100.00;99863.91;5073558;28;20058;-72
2021/12/04 07:45:30;;;;;;;28.63;14.27;;;;;;;-2.51;100.00;99853.38;5073487;28;20086;-79
2021/12/04 07:47:59;;;;;;;27.40;13.30;;;;;;;-2.46;100.00;99859.38;5073356;28;20477;-72
2021/12/04 07:50:28;;;;;;;34.00;15.38;;;;;;;-2.39;100.00;99866.25;5073923;28;20396;-73
2021/12/04 07:52:57;;;;;;;32.03;15.13;;;;;;;-2.40;100.00;99859.31;5073352;28;20040;-73
2021/12/04 07:55:28;;;;;;;33.10;15.57;;;;;;;-2.41;100.00;99849.75;5073854;28;20504;-74
2021/12/04 07:58:01;;;;;;;28.83;15.05;;;;;;;-2.31;100.00;99851.34;5073554;28;20041;-74
2021/12/04 08:00:30;;;;;;;31.70;15.50;;;;;;;-2.20;100.00;99855.56;5073676;28;20040;-74
2021/12/04 08:03:00;;;;;;;33.75;15.52;;;;;;;-2.16;100.00;99858.09;5073357;28;20052;-74
2021/12/04 08:05:29;;;;;;;30.77;16.10;;;;;;;-2.23;100.00;99855.56;5073686;28;20098;-73
2021/12/04 08:07:58;;;;;;;31.98;16.08;;;;;;;-2.19;100.00;99865.13;5073507;28;20473;-73
2021/12/04 08:10:27;;;;;;;29.02;14.80;;;;;;;-2.08;100.00;99860.59;5073426;28;20102;-73
2021/12/04 08:12:56;;;;;;;33.97;16.45;;;;;;;-2.06;100.00;99851.81;5072956;28;20127;-74
2021/12/04 08:15:24;;;;;;;31.20;15.85;;;;;;;-2.11;100.00;99863.25;5073338;28;20044;-70
2021/12/04 08:17:53;;;;;;;29.58;15.65;;;;;;;-2.09;100.00;99856.25;5073074;28;20041;-70
2021/12/04 08:20:21;;;;;;;34.10;15.73;;;;;;;-1.96;100.00;99844.69;5073311;28;20098;-70
2021/12/04 08:22:49;;;;;;;35.70;15.38;;;;;;;-2.14;100.00;99858.91;5072586;28;20072;-74
2021/12/04 08:25:19;;;;;;;32.45;15.50;;;;;;;-2.16;100.00;99859.84;5072748;28;20051;-71
2021/12/04 08:27:50;;;;;;;36.17;16.88;;;;;;;-2.14;100.00;99873.72;5072854;28;20037;-71
2021/12/04 08:30:22;;;;;;;36.60;17.08;;;;;;;-2.11;100.00;99871.97;5072913;28;20040;-72
2021/12/04 08:32:52;;;;;;;36.67;17.75;;;;;;;-2.00;100.00;99861.34;5072837;28;20079;-72
2021/12/04 08:35:23;;;;;;;34.95;18.17;;;;;;;-1.94;100.00;99842.91;5072670;28;20037;-72
2021/12/04 08:37:54;;;;;;;39.55;18.52;;;;;;;-1.87;100.00;99847.19;5072462;28;20086;-71
2021/12/04 08:40:22;;;;;;;36.88;19.13;;;;;;;-1.83;100.00;99842.78;5073103;28;20040;-70
2021/12/04 08:42:52;;;;;;;38.97;18.02;;;;;;;-1.69;100.00;99845.16;5072664;28;20041;-74
2021/12/04 08:45:21;;;;;;;36.80;18.65;;;;;;;-1.59;100.00;99837.13;5072880;28;20444;-75
2021/12/04 08:47:49;;;;;;;51.65;19.92;;;;;;;-1.44;100.00;99841.22;5072546;28;20090;-71
2021/12/04 08:50:20;;;;;;;39.45;19.95;;;;;;;-1.28;100.00;99834.81;5071478;28;20052;-71
2021/12/04 08:52:49;;;;;;;38.22;19.10;;;;;;;-1.03;100.00;99822.13;5072712;28;20497;-70
2021/12/04 08:55:20;;;;;;;37.03;18.08;;;;;;;-0.94;100.00;99821.94;5072717;28;20040;-70
2021/12/04 08:57:49;;;;;;;40.15;18.52;;;;;;;-0.95;100.00;99835.06;5072450;28;20037;-73
2021/12/04 09:00:24;;;;;;;38.03;19.38;;;;;;;-0.92;100.00;99833.22;5074320;28;20072;-68
2021/12/04 09:02:53;;;;;;;42.15;19.50;;;;;;;-0.81;100.00;99833.00;5076350;28;20397;-70
2021/12/04 09:05:22;;;;;;;40.08;18.58;;;;;;;-0.83;100.00;99829.56;5076836;28;20048;-68
2021/12/04 09:07:52;;;;;;;38.38;18.27;;;;;;;-0.88;100.00;99829.66;5075993;28;20143;-74
2021/12/04 09:10:21;;;;;;;38.22;17.58;;;;;;;-0.74;100.00;99828.50;5109002;28;20045;-70
2021/12/04 09:12:51;;;;;;;32.03;16.77;;;;;;;-0.77;100.00;99821.59;5076046;28;20044;-69
2021/12/04 09:15:24;;;;;;;32.00;16.90;;;;;;;-0.68;100.00;99818.75;5076556;28;20039;-67
2021/12/04 09:17:53;;;;;;;30.67;15.95;;;;;;;-0.33;100.00;99809.25;5076130;28;20044;-71
2021/12/04 09:20:21;;;;;;;33.10;16.75;;;;;;;-0.25;100.00;99806.47;5076416;28;20052;-72
2021/12/04 09:22:50;;;;;;;33.30;16.35;;;;;;;-0.28;100.00;99796.06;5075682;28;20532;-70
2021/12/04 09:25:22;;;;;;;27.23;13.85;;;;;;;-0.25;100.00;99799.47;5075769;28;20102;-72
2021/12/04 09:28:06;;;;;;;26.35;14.30;;;;;;;-0.22;100.00;99790.66;5075996;28;20044;-73
2021/12/04 09:33:53;;;;;;;23.42;13.65;;;;;;;-0.05;100.00;99778.03;5076484;28;20044;-71
2021/12/04 10:01:54;;;;;;;24.95;13.35;;;;;;;0.69;100.00;99762.09;5075482;28;20036;-71
2021/12/04 10:21:45;;;;;;;24.67;12.38;;;;;;;0.88;100.00;99716.94;5074138;28;20051;-70
2021/12/04 10:32:40;;;;;;;22.45;12.20;;;;;;;0.95;98.48;99695.66;5075008;28;20075;-69
2021/12/04 10:35:17;;;;;;;23.92;12.63;;;;;;;0.91;100.00;99687.94;5073509;28;20048;-68
2021/12/04 10:37:50;;;;;;;26.95;12.30;;;;;;;1.19;96.78;99687.97;5074879;28;20053;-69
2021/12/04 10:40:20;;;;;;;23.95;12.95;;;;;;;1.02;96.45;99684.09;5075113;28;20045;-69
2021/12/04 10:42:54;;;;;;;26.15;12.20;;;;;;;0.99;98.06;99681.56;5074127;28;20102;-70
2021/12/04 10:45:32;;;;;;;22.20;11.45;;;;;;;0.90;97.37;99660.84;5074872;28;20090;-70
2021/12/04 10:48:03;;;;;;;19.48;10.75;;;;;;;0.89;97.35;99659.13;5074459;28;20090;-70
2021/12/04 10:50:39;;;;;;;19.48;10.05;;;;;;;0.90;96.74;99658.22;5074938;28;20397;-70
2021/12/04 10:53:13;;;;;;;18.70;10.15;;;;;;;0.83;96.34;99659.28;5074438;28;20056;-70
2021/12/04 10:55:47;;;;;;;17.85;9.15;;;;;;;1.08;93.75;99654.16;5074930;28;20090;-70
2021/12/04 11:01:12;;;;;;;18.13;8.75;;;;;;;1.05;92.25;99641.09;5074247;28;20044;-70
2021/12/04 11:03:51;;;;;;;18.90;8.48;;;;;;;1.19;90.73;99638.06;5074596;28;20037;-70
2021/12/04 11:23:56;;;;;;;16.02;6.95;;;;;;;1.00;92.17;99617.63;5071944;28;20082;-68
2021/12/04 11:40:49;;;;;;;16.00;8.02;;;;;;;1.27;90.12;99575.63;5049333;28;20060;-70
2021/12/04 11:43:23;;;;;;;18.35;8.57;;;;;;;1.32;91.13;99585.06;5073752;28;20614;-70
2021/12/04 11:46:12;;;;;;;18.75;9.95;;;;;;;1.15;91.88;99585.59;5073832;28;20052;-69
2021/12/04 11:48:42;;;;;;;16.33;9.00;;;;;;;0.98;93.54;99569.56;5073918;28;20047;-69
2021/12/04 11:51:15;;;;;;;17.20;9.05;;;;;;;1.20;92.71;99563.59;5073443;28;20044;-70
2021/12/04 11:53:45;;;;;;;16.70;9.40;;;;;;;1.38;90.89;99555.09;5073886;28;20109;-69
2021/12/04 11:56:20;;;;;;;19.30;9.27;;;;;;;1.47;90.26;99549.53;5073396;28;20051;-69
2021/12/04 11:58:51;;;;;;;19.50;9.98;;;;;;;1.60;89.64;99548.19;5073260;28;20048;-69
2021/12/04 12:01:31;;;;;;;19.95;9.95;;;;;;;1.78;88.94;99553.72;5073292;28;20037;-70
2021/12/04 12:04:03;;;;;;;15.70;9.18;;;;;;;1.75;88.11;99540.69;5073326;28;20040;-70
2021/12/04 12:06:36;;;;;;;20.00;10.02;;;;;;;1.66;90.23;99529.59;5073250;28;20189;-70
2021/12/04 12:09:12;;;;;;;20.20;10.70;;;;;;;1.72;88.87;99531.13;5072969;28;20040;-70
2021/12/04 12:11:49;;;;;;;20.15;10.18;;;;;;;1.66;87.48;99526.94;5073534;28;20041;-68
2021/12/04 12:14:22;;;;;;;20.83;9.98;;;;;;;1.51;89.44;99524.00;5073358;28;20421;-69
2021/12/04 12:16:56;;;;;;;19.55;9.65;;;;;;;1.35;90.68;99523.66;5073498;28;20067;-68
2021/12/04 12:19:28;;;;;;;16.88;8.50;;;;;;;1.27;92.68;99528.34;5073512;28;20037;-70
2021/12/04 12:22:02;;;;;;;22.93;9.77;;;;;;;1.20;93.34;99519.78;5073183;28;20094;-69
2021/12/04 12:27:45;;;;;;;16.80;9.68;;;;;;;1.07;92.99;99516.72;5073249;28;20040;-68
2021/12/04 12:33:17;;;;;;;18.17;9.25;;;;;;;1.09;94.83;99528.03;5072559;28;20387;-70
2021/12/04 12:36:03;;;;;;;19.00;9.48;;;;;;;1.15;96.00;99533.06;5073063;28;20127;-70
2021/12/04 12:38:43;;;;;;;18.63;9.40;;;;;;;0.99;96.66;99520.50;5073123;28;20082;-69
2021/12/04 12:41:16;;;;;;;20.38;10.18;;;;;;;0.97;97.38;99523.19;5073013;28;20045;-70
2021/12/04 12:43:54;;;;;;;20.85;10.13;;;;;;;1.03;97.15;99519.47;5073159;28;20419;-70
2021/12/04 12:46:33;;;;;;;18.73;9.82;;;;;;;1.08;96.49;99512.31;5072755;28;20037;-70
2021/12/04 12:49:05;;;;;;;21.20;10.13;;;;;;;1.01;96.42;99505.56;5072897;28;20405;-71
2021/12/04 12:51:36;;;;;;;17.98;9.60;;;;;;;0.94;97.10;99502.25;5073229;28;20055;-70
2021/12/04 12:54:07;;;;;;;18.63;10.23;;;;;;;0.94;97.34;99498.78;5072519;28;20045;-71
2021/12/04 12:56:43;;;;;;;19.17;10.02;;;;;;;0.96;97.64;99499.56;5072987;28;20037;-69
2021/12/04 12:59:32;;;;;;;18.52;9.85;;;;;;;1.00;97.22;99504.69;5072451;28;20055;-70
2021/12/04 13:13:29;;;;;;;14.98;8.05;;;;;;;1.21;92.41;99492.59;5071237;28;20057;-72
2021/12/04 13:16:04;;;;;;;15.15;8.95;;;;;;;1.12;91.86;99500.78;5072527;28;20048;-69
2021/12/04 13:18:37;;;;;;;18.55;8.23;;;;;;;1.17;91.88;99496.25;5072450;28;20045;-69
2021/12/04 13:21:08;;;;;;;17.95;8.48;;;;;;;1.20;91.78;99498.78;5072304;28;20501;-71
2021/12/04 13:23:38;;;;;;;18.63;9.18;;;;;;;1.15;92.48;99487.53;5072945;28;20045;-69
2021/12/04 13:26:09;;;;;;;17.75;8.55;;;;;;;1.10;93.20;99495.59;5072378;28;20413;-70
2021/12/04 13:28:40;;;;;;;22.13;9.07;;;;;;;1.07;93.04;99500.97;5072696;28;20036;-70
2021/12/04 13:31:16;;;;;;;18.50;8.70;;;;;;;1.06;92.68;99504.50;5072558;28;20127;-70
2021/12/04 13:33:49;;;;;;;16.63;9.07;;;;;;;1.09;92.59;99499.13;5072705;28;20048;-70
2021/12/04 13:36:20;;;;;;;20.33;9.17;;;;;;;1.04;92.95;99501.03;5072158;28;20048;-70
2021/12/04 13:38:52;;;;;;;15.50;8.55;;;;;;;1.13;93.55;99498.09;5072711;28;20053;-70
2021/12/04 13:41:21;;;;;;;15.07;8.52;;;;;;;1.20;92.71;99490.03;5072504;28;20124;-68
2021/12/04 13:43:53;;;;;;;19.55;9.38;;;;;;;1.27;93.66;99481.03;5072628;28;20069;-69
2021/12/04 13:46:23;;;;;;;14.68;8.88;;;;;;;1.37;92.93;99474.56;5073479;28;20037;-70
2021/12/04 13:49:01;;;;;;;19.48;9.60;;;;;;;1.47;92.88;99478.56;5076114;28;20127;-69
2021/12/04 13:51:29;;;;;;;19.52;9.63;;;;;;;1.72;89.76;99474.13;5075931;28;20045;-69
2021/12/04 13:53:58;;;;;;;19.40;9.63;;;;;;;1.67;90.66;99470.81;5076038;28;20052;-70
2021/12/04 13:56:28;;;;;;;19.17;10.15;;;;;;;1.50;92.03;99470.56;5075732;28;20482;-69
2021/12/04 13:59:01;;;;;;;18.55;9.02;;;;;;;1.59;91.23;99464.97;5076677;28;20051;-70
2021/12/04 14:01:36;;;;;;;16.35;9.25;;;;;;;1.44;92.32;99462.88;5075805;28;20493;-70
2021/12/04 14:04:11;;;;;;;22.23;10.15;;;;;;;1.60;93.00;99452.69;5075849;28;20036;-70
2021/12/04 14:06:39;;;;;;;21.10;9.93;;;;;;;1.53;94.71;99438.91;5075716;28;20044;-70